Time;durP1;ratioP1;P1;durP2;ratioP2;P2;SDS_P1;SDS_P2;PMS_P1;PMS_P2;Temp;Humidity;BMP_temperature;BMP_pressure;BME280_temperature;BME280_humidity;BME280_pressure;Samples;Min_cycle;Max_cycle;Signal;HPM_P1;HPM_P2
2022/10/19 00:01:12;;;;;;;9.05;3.20;;;12.00;99.90;;;;;;5093224;28;20036;-69
2022/10/19 00:03:39;;;;;;;12.00;3.17;;;12.00;99.90;;;;;;5093184;28;20032;-69
2022/10/19 00:06:26;;;;;;;12.52;3.42;;;12.00;99.90;;;;;;5092973;28;20036;-69
2022/10/19 00:09:13;;;;;;;8.63;2.92;;;12.00;99.90;;;;;;5092834;28;20504;-69
2022/10/19 00:11:42;;;;;;;10.70;3.30;;;11.90;99.90;;;;;;5092106;28;20093;-69
2022/10/19 00:14:14;;;;;;;10.90;3.25;;;11.90;99.90;;;;;;5093036;28;20028;-69
2022/10/19 00:16:40;;;;;;;8.07;3.42;;;11.90;99.90;;;;;;5092769;28;20047;-68
2022/10/19 00:19:13;;;;;;;9.00;2.75;;;11.90;99.90;;;;;;5092810;28;20384;-68
2022/10/19 00:21:39;;;;;;;12.90;3.50;;;11.90;99.90;;;;;;5074618;28;20096;-69
2022/10/19 00:24:06;;;;;;;11.73;3.03;;;11.90;99.90;;;;;;5092985;28;20028;-69
2022/10/19 00:26:32;;;;;;;8.02;2.83;;;11.90;99.90;;;;;;5092780;28;20032;-68
2022/10/19 00:28:58;;;;;;;8.13;2.85;;;11.90;99.90;;;;;;5092806;28;20460;-69
2022/10/19 00:31:25;;;;;;;9.40;2.90;;;11.90;99.90;;;;;;5092358;28;20032;-68
2022/10/19 00:33:52;;;;;;;15.95;3.30;;;11.90;99.90;;;;;;5092550;28;20024;-69
2022/10/19 00:36:25;;;;;;;9.65;3.25;;;11.80;99.90;;;;;;5092767;28;20388;-68
2022/10/19 00:38:53;;;;;;;12.40;3.92;;;11.90;99.90;;;;;;5092369;28;20024;-69
2022/10/19 00:41:20;;;;;;;11.57;3.38;;;11.90;99.90;;;;;;5092265;28;20481;-69
2022/10/19 00:43:56;;;;;;;8.93;3.13;;;11.90;99.90;;;;;;5092306;28;20115;-69
2022/10/19 00:46:23;;;;;;;9.52;3.10;;;11.80;99.90;;;;;;5092132;28;20511;-69
2022/10/19 00:48:51;;;;;;;9.50;3.30;;;11.80;99.90;;;;;;5092261;28;20032;-69
2022/10/19 00:51:18;;;;;;;9.73;2.90;;;11.80;99.90;;;;;;5092338;28;20392;-68
2022/10/19 00:53:44;;;;;;;10.02;3.03;;;11.80;99.90;;;;;;5092238;28;20031;-68
2022/10/19 00:56:14;;;;;;;7.78;3.17;;;11.80;99.90;;;;;;5091963;28;20031;-69
2022/10/19 00:58:42;;;;;;;10.65;3.38;;;11.80;99.90;;;;;;5091937;28;20476;-68
2022/10/19 01:01:10;;;;;;;10.10;3.58;;;11.80;99.90;;;;;;5091994;28;20036;-69
2022/10/19 01:03:37;;;;;;;13.32;3.20;;;11.80;99.90;;;;;;5092295;28;20081;-69
2022/10/19 01:06:03;;;;;;;13.30;3.80;;;11.80;99.90;;;;;;5092021;28;20038;-68
2022/10/19 01:08:29;;;;;;;10.55;3.28;;;11.80;99.90;;;;;;5091842;28;20038;-69
2022/10/19 01:11:29;;;;;;;9.18;3.58;;;11.90;99.90;;;;;;5091754;28;20036;-69
2022/10/19 01:14:20;;;;;;;15.10;4.22;;;11.90;99.90;;;;;;5091878;28;20384;-69
2022/10/19 01:16:48;;;;;;;12.32;4.07;;;11.80;99.90;;;;;;5091692;28;20035;-69
2022/10/19 01:19:36;;;;;;;15.07;4.22;;;11.80;99.90;;;;;;5091864;28;20043;-68
2022/10/19 01:22:20;;;;;;;12.65;4.15;;;11.80;99.90;;;;;;5091228;28;20031;-69
2022/10/19 01:25:31;;;;;;;15.40;3.60;;;11.70;99.90;;;;;;5091666;28;20055;-68
2022/10/19 01:28:15;;;;;;;13.73;3.50;;;11.70;99.90;;;;;;5091522;28;20111;-69
2022/10/19 01:30:49;;;;;;;13.05;3.50;;;11.70;99.90;;;;;;5091311;28;20034;-69
2022/10/19 01:33:36;;;;;;;9.98;3.60;;;11.60;99.90;;;;;;5091430;28;20020;-69
2022/10/19 01:36:11;;;;;;;9.23;3.23;;;11.70;99.90;;;;;;5091520;28;20550;-69
2022/10/19 01:38:45;;;;;;;15.60;3.95;;;11.70;99.90;;;;;;5091528;28;20028;-68
2022/10/19 01:41:26;;;;;;;12.52;3.33;;;11.70;99.90;;;;;;5091427;28;20028;-69
2022/10/19 01:44:10;;;;;;;14.45;3.45;;;11.60;99.90;;;;;;5091515;28;20082;-69
2022/10/19 01:46:39;;;;;;;9.05;3.28;;;11.60;99.90;;;;;;5091457;28;20024;-69
2022/10/19 01:49:15;;;;;;;11.32;3.78;;;11.60;99.90;;;;;;5091636;28;20425;-69
2022/10/19 01:51:48;;;;;;;10.85;3.50;;;11.60;99.90;;;;;;5091132;28;20036;-69
2022/10/19 01:54:18;;;;;;;14.25;4.50;;;11.60;99.90;;;;;;5091765;28;20051;-68
2022/10/19 01:56:47;;;;;;;10.27;3.38;;;11.50;99.90;;;;;;5091131;28;20078;-68
2022/10/19 01:59:15;;;;;;;;;;;11.50;99.90;;;;;;5092122;28;20035;-69
2022/10/19 02:01:44;;;;;;;10.43;3.40;;;11.50;99.90;;;;;;5091193;28;19908;-68
2022/10/19 02:04:12;;;;;;;;;;;11.40;99.90;;;;;;5091933;28;20039;-69
2022/10/19 02:06:38;;;;;;;10.55;3.60;;;11.30;99.90;;;;;;5091227;28;20427;-69
2022/10/19 02:09:04;;;;;;;10.03;3.77;;;11.40;99.90;;;;;;5090973;28;20500;-69
2022/10/19 02:11:31;;;;;;;10.60;3.20;;;11.30;99.90;;;;;;5091024;28;20089;-69
2022/10/19 02:14:03;;;;;;;9.50;3.20;;;11.30;99.90;;;;;;5091126;28;20416;-69
2022/10/19 02:16:34;;;;;;;9.53;3.40;;;11.30;99.90;;;;;;5091157;28;20388;-69
2022/10/19 02:19:02;;;;;;;9.33;3.30;;;11.30;99.90;;;;;;5090944;28;20374;-69
2022/10/19 02:21:28;;;;;;;8.53;3.23;;;11.20;99.90;;;;;;5072994;28;20031;-69
2022/10/19 02:23:54;;;;;;;12.63;3.73;;;11.30;99.90;;;;;;5091213;28;20111;-69
2022/10/19 02:26:20;;;;;;;13.65;3.60;;;11.30;99.90;;;;;;5091277;28;20028;-69
2022/10/19 02:28:47;;;;;;;10.10;3.73;;;11.30;99.90;;;;;;5090789;28;20477;-68
2022/10/19 02:31:13;;;;;;;12.98;3.97;;;11.30;99.90;;;;;;5091023;28;20374;-69
2022/10/19 02:33:39;;;;;;;11.60;3.80;;;11.30;99.90;;;;;;5093471;28;20024;-68
2022/10/19 02:36:05;;;;;;;15.23;3.83;;;11.30;99.90;;;;;;5094764;28;20500;-68
2022/10/19 02:38:31;;;;;;;8.13;3.50;;;11.30;99.90;;;;;;5095038;28;20036;-68
2022/10/19 02:41:01;;;;;;;16.30;3.93;;;11.30;99.90;;;;;;5094645;28;20333;-69
2022/10/19 02:43:30;;;;;;;13.77;3.90;;;11.20;99.90;;;;;;5076767;28;20036;-69
2022/10/19 02:46:06;;;;;;;15.07;4.07;;;11.20;99.90;;;;;;5094711;28;20070;-68
2022/10/19 02:48:35;;;;;;;10.80;3.50;;;11.20;99.90;;;;;;5094736;28;20396;-68
2022/10/19 02:51:01;;;;;;;9.43;3.78;;;11.30;99.90;;;;;;5060302;28;20161;-69
2022/10/19 02:53:27;;;;;;;9.93;3.63;;;11.30;99.90;;;;;;5076435;28;20024;-68
2022/10/19 02:55:53;;;;;;;12.82;4.07;;;11.20;99.90;;;;;;5094689;28;20120;-69
2022/10/19 02:58:19;;;;;;;11.13;3.60;;;11.20;99.90;;;;;;5095012;28;20020;-69
2022/10/19 03:00:45;;;;;;;10.93;3.77;;;11.20;99.90;;;;;;5094442;28;20031;-69
2022/10/19 03:03:11;;;;;;;11.43;3.97;;;11.30;99.90;;;;;;5094560;28;20399;-69
2022/10/19 03:05:37;;;;;;;10.97;4.00;;;11.30;99.90;;;;;;5094555;28;20074;-68
2022/10/19 03:08:03;;;;;;;12.13;4.30;;;11.30;99.90;;;;;;5076311;28;20036;-69
2022/10/19 03:10:29;;;;;;;14.87;4.20;;;11.30;99.90;;;;;;5094207;28;20504;-68
2022/10/19 03:12:59;;;;;;;14.43;4.00;;;11.30;99.90;;;;;;5094277;28;20036;-69
2022/10/19 03:15:27;;;;;;;12.95;3.90;;;11.30;99.90;;;;;;5094351;28;20523;-69
2022/10/19 03:17:55;;;;;;;13.63;4.22;;;11.30;99.90;;;;;;5094178;28;20396;-69
2022/10/19 03:20:21;;;;;;;14.63;4.17;;;11.30;99.90;;;;;;5094205;28;20107;-69
2022/10/19 03:22:47;;;;;;;9.83;4.57;;;11.40;99.90;;;;;;5075923;28;20043;-69
2022/10/19 03:25:13;;;;;;;17.10;4.77;;;11.40;99.90;;;;;;5094205;28;20153;-69
2022/10/19 03:27:39;;;;;;;13.27;3.67;;;11.40;99.90;;;;;;5094076;28;20052;-69
2022/10/19 03:30:05;;;;;;;11.87;4.47;;;11.40;99.90;;;;;;5093806;28;20036;-69
2022/10/19 03:32:31;;;;;;;11.53;4.30;;;11.40;99.90;;;;;;5093973;28;20024;-69
2022/10/19 03:34:57;;;;;;;12.80;4.90;;;11.40;99.90;;;;;;5094075;28;20496;-69
2022/10/19 03:37:23;;;;;;;12.63;4.37;;;11.40;99.90;;;;;;5093933;28;20100;-69
2022/10/19 03:39:49;;;;;;;14.37;4.90;;;11.30;99.90;;;;;;5093701;28;20038;-69
2022/10/19 03:42:15;;;;;;;12.93;4.10;;;11.20;99.90;;;;;;5093780;28;20115;-68
2022/10/19 03:44:41;;;;;;;12.20;4.70;;;11.20;99.90;;;;;;5093498;28;20028;-69
2022/10/19 03:47:07;;;;;;;12.80;4.60;;;11.20;99.90;;;;;;5093659;28;20506;-69
2022/10/19 03:49:33;;;;;;;13.93;4.30;;;11.20;99.90;;;;;;5075543;28;20036;-69
2022/10/19 03:51:58;;;;;;;14.53;5.10;;;11.10;99.90;;;;;;5093524;28;20447;-68
2022/10/19 03:54:24;;;;;;;10.23;4.67;;;11.10;99.90;;;;;;5093741;28;20077;-69
2022/10/19 03:56:50;;;;;;;11.60;4.87;;;11.10;99.90;;;;;;5093862;28;20024;-69
2022/10/19 03:59:16;;;;;;;12.67;4.67;;;11.10;99.90;;;;;;5093828;28;20057;-68
2022/10/19 04:01:44;;;;;;;11.97;5.43;;;11.10;99.90;;;;;;5093617;28;20035;-69
2022/10/19 04:04:14;;;;;;;13.43;5.23;;;11.10;99.90;;;;;;5093798;28;20028;-68
2022/10/19 04:06:42;;;;;;;13.85;4.55;;;11.00;99.90;;;;;;5075852;28;20390;-69
2022/10/19 04:09:12;;;;;;;13.50;5.40;;;11.00;99.90;;;;;;5093622;28;20024;-69
2022/10/19 04:11:38;;;;;;;13.10;4.80;;;11.00;99.90;;;;;;5093406;28;20028;-69
2022/10/19 04:14:04;;;;;;;9.93;4.60;;;11.00;99.90;;;;;;5093441;28;20434;-68
2022/10/19 04:16:31;;;;;;;10.57;4.83;;;10.90;99.90;;;;;;5093429;28;20046;-68
2022/10/19 04:18:58;;;;;;;14.60;5.30;;;10.90;99.90;;;;;;5093062;28;20103;-68
2022/10/19 04:21:30;;;;;;;17.47;5.03;;;10.90;99.90;;;;;;5093011;28;20032;-69
2022/10/19 04:24:06;;;;;;;10.57;4.43;;;10.90;99.90;;;;;;5093274;28;20035;-68
2022/10/19 04:26:37;;;;;;;12.13;4.97;;;10.90;99.90;;;;;;5093301;28;20121;-69
2022/10/19 04:29:03;;;;;;;12.80;5.20;;;10.90;99.90;;;;;;5093174;28;20047;-69
2022/10/19 04:31:29;;;;;;;16.90;5.13;;;10.80;99.90;;;;;;5074937;28;20032;-68
2022/10/19 04:33:56;;;;;;;15.73;5.23;;;10.80;99.90;;;;;;5093181;28;20028;-69
2022/10/19 04:36:22;;;;;;;14.20;5.33;;;10.80;99.90;;;;;;5093083;28;20481;-69
2022/10/19 04:38:48;;;;;;;15.80;5.77;;;10.90;99.90;;;;;;5074875;28;20173;-69
2022/10/19 04:41:16;;;;;;;11.57;5.37;;;10.80;99.90;;;;;;5092787;28;20552;-69
2022/10/19 04:43:45;;;;;;;14.43;5.93;;;10.80;99.90;;;;;;5092773;28;20040;-68
2022/10/19 04:46:17;;;;;;;11.98;5.65;;;10.80;99.90;;;;;;5092760;28;20051;-69
2022/10/19 04:48:44;;;;;;;10.93;5.40;;;10.80;99.90;;;;;;5092717;28;20024;-69
2022/10/19 04:51:10;;;;;;;12.33;5.60;;;10.80;99.90;;;;;;5092553;28;20024;-69
2022/10/19 04:53:38;;;;;;;15.17;5.40;;;10.80;99.90;;;;;;5092597;28;20034;-69
2022/10/19 04:56:07;;;;;;;13.00;6.07;;;10.90;99.90;;;;;;5091654;28;20641;-68
2022/10/19 04:58:34;;;;;;;16.23;5.82;;;10.80;99.90;;;;;;5092505;28;20020;-69
2022/10/19 05:01:10;;;;;;;11.73;6.27;;;10.80;99.90;;;;;;5092439;28;20124;-68
2022/10/19 05:03:37;;;;;;;17.53;6.53;;;10.80;99.90;;;;;;5092414;28;20028;-68
2022/10/19 05:06:03;;;;;;;15.10;6.67;;;10.80;99.90;;;;;;5092312;28;20495;-69
2022/10/19 05:08:29;;;;;;;14.53;6.10;;;10.70;99.90;;;;;;5074170;28;20502;-69
2022/10/19 05:11:04;;;;;;;14.93;6.40;;;10.70;99.90;;;;;;5091914;28;20480;-69
2022/10/19 05:13:31;;;;;;;12.83;5.73;;;10.70;99.90;;;;;;5092592;28;20052;-68
2022/10/19 05:16:00;;;;;;;14.33;6.30;;;10.70;99.90;;;;;;5092315;28;20512;-69
2022/10/19 05:18:26;;;;;;;12.23;6.50;;;10.70;99.90;;;;;;5073951;28;20035;-69
2022/10/19 05:21:03;;;;;;;12.27;6.23;;;10.70;99.90;;;;;;5092055;28;20047;-69
2022/10/19 05:23:29;;;;;;;16.87;6.70;;;10.70;99.90;;;;;;5091875;28;20031;-69
2022/10/19 05:26:03;;;;;;;12.60;6.47;;;10.70;99.90;;;;;;5091865;28;20032;-69
2022/10/19 05:28:30;;;;;;;16.17;6.63;;;10.60;99.90;;;;;;5091979;28;20107;-69
2022/10/19 05:31:06;;;;;;;15.30;6.50;;;10.60;99.90;;;;;;5092003;28;20028;-69
2022/10/19 05:33:33;;;;;;;17.37;6.30;;;10.50;99.90;;;;;;5092291;28;20024;-69
2022/10/19 05:35:58;;;;;;;14.30;6.23;;;10.60;99.90;;;;;;5091682;28;20380;-68
2022/10/19 05:38:24;;;;;;;13.07;6.50;;;10.60;99.90;;;;;;5091922;28;20031;-68
2022/10/19 05:40:50;;;;;;;14.80;6.63;;;10.70;99.90;;;;;;5091800;28;20107;-69
2022/10/19 05:43:16;;;;;;;15.83;6.43;;;10.60;99.90;;;;;;5091470;28;20116;-69
2022/10/19 05:45:43;;;;;;;20.50;6.60;;;10.60;99.90;;;;;;5091542;28;20165;-69
2022/10/19 05:48:09;;;;;;;15.30;6.63;;;10.50;99.90;;;;;;5092126;28;20373;-68
2022/10/19 05:50:35;;;;;;;17.67;6.53;;;10.60;99.90;;;;;;5091632;28;20036;-68
2022/10/19 05:53:00;;;;;;;14.23;6.30;;;10.60;99.90;;;;;;5091605;28;20038;-68
2022/10/19 05:55:26;;;;;;;15.27;6.30;;;10.60;99.90;;;;;;5091563;28;20028;-68
2022/10/19 05:57:52;;;;;;;12.73;5.97;;;10.50;99.90;;;;;;5091455;28;20043;-69
2022/10/19 06:00:18;;;;;;;15.37;6.03;;;10.50;99.90;;;;;;5091258;28;20429;-69
2022/10/19 06:02:44;;;;;;;19.07;6.70;;;10.50;99.90;;;;;;5091473;28;20071;-69
2022/10/19 06:05:10;;;;;;;13.63;6.50;;;10.50;99.90;;;;;;5091545;28;20032;-69
2022/10/19 06:07:36;;;;;;;13.20;5.83;;;10.50;99.90;;;;;;5076314;28;20128;-69
2022/10/19 06:10:02;;;;;;;15.47;6.77;;;10.50;99.90;;;;;;5095401;28;20024;-69
2022/10/19 06:12:28;;;;;;;14.77;6.20;;;10.40;99.90;;;;;;5095605;28;20103;-69
2022/10/19 06:14:54;;;;;;;13.50;6.20;;;10.50;99.90;;;;;;5096044;28;20111;-69
2022/10/19 06:17:20;;;;;;;19.13;6.43;;;10.50;99.90;;;;;;5103771;22;20151;-68
2022/10/19 06:19:46;;;;;;;16.60;6.10;;;10.40;99.90;;;;;;5057116;28;20020;-69
2022/10/19 06:22:12;;;;;;;14.30;6.43;;;10.40;99.90;;;;;;5082704;28;20059;-69
2022/10/19 06:24:38;;;;;;;13.10;6.10;;;10.40;99.90;;;;;;5095460;28;20032;-69
2022/10/19 06:27:05;;;;;;;15.93;6.00;;;10.50;99.90;;;;;;5095425;28;20111;-69
2022/10/19 06:29:31;;;;;;;14.03;6.03;;;10.40;99.90;;;;;;5095020;28;20071;-69
2022/10/19 06:31:59;;;;;;;15.40;6.23;;;10.50;99.90;;;;;;5077176;28;20043;-69
2022/10/19 06:34:27;;;;;;;15.47;5.70;;;10.50;99.90;;;;;;5060494;28;20083;-69
2022/10/19 06:36:53;;;;;;;10.43;5.85;;;10.50;99.90;;;;;;5095229;28;20050;-69
2022/10/19 06:39:19;;;;;;;14.43;6.67;;;10.60;99.90;;;;;;5095034;28;20468;-69
2022/10/19 06:41:45;;;;;;;14.60;6.97;;;10.50;99.90;;;;;;5095054;28;20079;-69
2022/10/19 06:44:18;;;;;;;17.10;6.93;;;10.60;99.90;;;;;;5095099;28;20027;-69
2022/10/19 06:46:43;;;;;;;12.53;6.00;;;10.60;99.90;;;;;;5095019;28;20103;-69
2022/10/19 06:49:13;;;;;;;13.03;6.63;;;10.50;99.90;;;;;;5094675;28;20452;-69
2022/10/19 06:51:39;;;;;;;13.50;6.93;;;10.40;99.90;;;;;;5094827;28;20032;-69
2022/10/19 06:54:06;;;;;;;12.10;6.43;;;10.40;99.90;;;;;;5095017;28;20055;-68
2022/10/19 06:56:32;;;;;;;17.50;6.83;;;10.40;99.90;;;;;;5094756;28;20024;-69
2022/10/19 06:58:59;;;;;;;19.57;7.40;;;10.50;99.90;;;;;;5094803;28;20043;-69
2022/10/19 07:01:25;;;;;;;19.63;7.50;;;10.50;99.90;;;;;;5094475;28;20063;-69
2022/10/19 07:03:51;;;;;;;15.53;7.57;;;10.60;99.90;;;;;;5076732;28;20055;-69
2022/10/19 07:06:18;;;;;;;17.00;7.30;;;10.50;99.90;;;;;;5094420;28;20138;-69
2022/10/19 07:08:44;;;;;;;14.30;6.73;;;10.60;99.90;;;;;;5076508;28;20031;-69
2022/10/19 07:11:13;;;;;;;15.93;7.50;;;10.60;99.90;;;;;;5094379;28;20395;-69
2022/10/19 07:13:39;;;;;;;15.13;7.23;;;10.60;99.90;;;;;;5094386;28;20042;-70
2022/10/19 07:16:10;;;;;;;19.87;7.47;;;10.70;99.90;;;;;;5093790;28;20103;-67
2022/10/19 07:18:38;;;;;;;13.10;7.80;;;10.70;99.90;;;;;;5093099;28;20028;-71
2022/10/19 07:21:07;;;;;;;15.87;7.80;;;10.60;99.90;;;;;;5094009;28;20032;-72
2022/10/19 07:23:35;;;;;;;17.63;7.37;;;10.50;99.90;;;;;;5093849;28;20028;-70
2022/10/19 07:26:20;;;;;;;15.93;8.00;;;10.70;99.90;;;;;;5075403;28;20028;-70
2022/10/19 07:28:49;;;;;;;13.90;7.00;;;10.70;99.90;;;;;;5093674;28;20036;-70
2022/10/19 07:31:21;;;;;;;16.30;8.20;;;10.70;99.90;;;;;;5093576;28;20028;-71
2022/10/19 07:33:54;;;;;;;17.93;8.53;;;10.80;99.90;;;;;;5093662;28;20037;-73
2022/10/19 07:36:21;;;;;;;17.33;8.07;;;10.60;99.90;;;;;;5093298;28;20031;-70
2022/10/19 07:38:47;;;;;;;16.70;8.33;;;10.60;99.90;;;;;;5093121;28;20031;-70
2022/10/19 07:41:15;;;;;;;20.17;8.50;;;10.70;99.90;;;;;;5092697;28;20028;-70
2022/10/19 07:43:43;;;;;;;15.15;7.88;;;10.80;99.90;;;;;;5073741;28;20027;-70
2022/10/19 07:46:21;;;;;;;16.87;7.43;;;10.90;99.90;;;;;;5091773;28;20028;-70
2022/10/19 07:48:48;;;;;;;13.00;7.47;;;10.90;99.90;;;;;;5092085;28;20047;-70
2022/10/19 07:51:16;;;;;;;13.17;7.00;;;11.00;99.90;;;;;;5091867;28;20829;-70
2022/10/19 07:53:42;;;;;;;14.50;8.67;;;11.00;99.90;;;;;;5073842;28;20035;-70
2022/10/19 07:56:14;;;;;;;16.57;7.80;;;11.10;99.90;;;;;;5074030;28;20107;-70
2022/10/19 07:58:41;;;;;;;13.13;7.30;;;11.10;99.90;;;;;;5093077;28;20074;-70
2022/10/19 08:01:17;;;;;;;18.33;8.77;;;11.10;99.90;;;;;;5093217;28;20071;-70
2022/10/19 08:03:44;;;;;;;19.33;8.20;;;11.20;99.90;;;;;;5093105;28;20036;-70
2022/10/19 08:06:13;;;;;;;18.07;7.97;;;11.20;99.90;;;;;;5093062;28;20046;-70
2022/10/19 08:08:39;;;;;;;15.93;7.60;;;11.20;99.90;;;;;;5093290;28;20024;-70
2022/10/19 08:11:10;;;;;;;15.23;8.10;;;11.30;99.90;;;;;;5074634;28;20047;-71
2022/10/19 08:13:37;;;;;;;22.90;8.37;;;11.30;99.90;;;;;;5074984;28;20480;-71
2022/10/19 08:16:04;;;;;;;16.50;7.80;;;11.30;99.90;;;;;;5073966;28;20036;-70
2022/10/19 08:18:33;;;;;;;14.73;7.30;;;11.40;99.90;;;;;;5092763;28;20032;-70
2022/10/19 08:21:03;;;;;;;19.15;7.47;;;11.50;99.90;;;;;;5074691;28;20027;-70
2022/10/19 08:23:29;;;;;;;14.43;7.53;;;11.50;99.90;;;;;;5092665;28;20024;-71
2022/10/19 08:25:58;;;;;;;18.20;7.30;;;11.60;99.90;;;;;;5092690;28;20040;-70
2022/10/19 08:28:24;;;;;;;14.25;6.60;;;11.60;99.90;;;;;;5092476;28;20032;-70
2022/10/19 08:30:50;;;;;;;17.83;6.60;;;11.70;99.90;;;;;;5073290;28;20492;-71
2022/10/19 08:33:16;;;;;;;15.20;7.00;;;11.70;99.90;;;;;;5092372;28;20401;-70
2022/10/19 08:35:42;;;;;;;15.38;6.65;;;11.70;99.90;;;;;;5092574;28;20028;-70
2022/10/19 08:38:08;;;;;;;12.80;6.27;;;11.80;99.90;;;;;;5092386;28;20032;-70
2022/10/19 08:40:34;;;;;;;18.10;6.03;;;11.80;99.90;;;;;;5092237;28;20049;-70
2022/10/19 08:43:12;;;;;;;15.50;6.37;;;11.90;99.90;;;;;;5092467;28;20148;-75
2022/10/19 08:45:42;;;;;;;13.63;6.20;;;11.90;99.90;;;;;;5092355;28;20034;-71
2022/10/19 08:48:35;;;;;;;14.00;5.40;;;12.00;99.90;;;;;;5092664;28;20035;-77
2022/10/19 08:51:04;;;;;;;9.83;5.07;;;12.00;99.90;;;;;;5092174;28;20035;-74
2022/10/19 08:53:34;;;;;;;15.63;6.80;;;12.10;99.90;;;;;;5092419;28;20035;-77
2022/10/19 08:56:07;;;;;;;12.20;5.70;;;12.10;99.90;;;;;;5092097;28;20099;-76
2022/10/19 08:58:54;;;;;;;16.33;6.50;;;12.10;99.90;;;;;;5073895;28;20024;-76
2022/10/19 09:01:32;;;;;;;12.73;5.30;;;12.20;99.90;;;;;;5074223;28;20055;-76
2022/10/19 09:04:06;;;;;;;12.90;4.90;;;12.20;99.90;;;;;;5092155;28;20122;-75
2022/10/19 09:06:59;;;;;;;17.15;5.50;;;12.20;99.90;;;;;;5092056;28;20054;-76
2022/10/19 09:09:28;;;;;;;14.00;4.35;;;12.20;99.90;;;;;;5091287;28;20052;-76
2022/10/19 09:12:02;;;;;;;13.60;4.75;;;12.30;99.90;;;;;;5092184;28;20032;-76
2022/10/19 09:14:37;;;;;;;13.35;3.97;;;12.30;99.90;;;;;;5092494;28;20195;-77
2022/10/19 09:17:11;;;;;;;8.55;3.03;;;12.40;99.90;;;;;;5092568;28;20115;-73
2022/10/19 09:19:37;;;;;;;15.35;3.58;;;12.40;99.90;;;;;;5073750;28;20038;-74
2022/10/19 09:22:11;;;;;;;9.05;2.80;;;12.40;99.90;;;;;;5091633;28;20481;-72
2022/10/19 09:25:22;;;;;;;9.57;3.15;;;12.40;99.90;;;;;;5091591;28;20032;-71
2022/10/19 09:27:54;;;;;;;10.27;3.38;;;12.40;99.90;;;;;;5009399;28;20539;-73
2022/10/19 09:30:22;;;;;;;10.40;3.72;;;12.40;99.90;;;;;;5083490;28;20040;-72
2022/10/19 09:32:57;;;;;;;7.03;3.28;;;12.50;99.90;;;;;;5091522;28;20480;-73
2022/10/19 09:35:37;;;;;;;6.65;3.05;;;12.50;99.90;;;;;;5091758;28;20077;-72
2022/10/19 09:38:06;;;;;;;10.32;3.60;;;12.50;99.90;;;;;;5074635;28;20480;-74
2022/10/19 09:40:33;;;;;;;10.40;3.30;;;12.60;99.90;;;;;;5093952;28;20177;-72
2022/10/19 09:43:20;;;;;;;9.02;2.92;;;12.60;99.90;;;;;;5093825;28;20032;-74
2022/10/19 09:45:54;;;;;;;12.50;3.95;;;12.70;99.90;;;;;;5092139;28;20050;-74
2022/10/19 09:48:40;;;;;;;20.23;3.63;;;12.70;99.90;;;;;;5091678;28;20101;-74
2022/10/19 09:51:15;;;;;;;7.65;2.80;;;12.80;99.90;;;;;;5073440;28;20116;-75
2022/10/19 09:53:53;;;;;;;8.10;2.65;;;12.70;99.90;;;;;;5073114;28;20040;-75
2022/10/19 09:56:24;;;;;;;10.38;2.90;;;12.80;99.90;;;;;;5091713;28;20031;-74
2022/10/19 09:58:53;;;;;;;6.75;2.28;;;12.80;99.90;;;;;;5091236;28;20113;-75
2022/10/19 10:01:39;;;;;;;5.50;2.25;;;12.80;99.90;;;;;;5091676;28;20031;-74
2022/10/19 10:04:07;;;;;;;8.23;2.28;;;12.90;99.90;;;;;;5073397;28;20089;-75
2022/10/19 10:06:34;;;;;;;7.05;2.10;;;12.90;99.90;;;;;;5090825;28;20032;-74
2022/10/19 10:09:03;;;;;;;7.75;1.90;;;12.90;99.90;;;;;;5073333;28;20035;-73
2022/10/19 10:11:38;;;;;;;8.27;2.35;;;13.00;99.90;;;;;;5091029;28;20028;-74
2022/10/19 10:14:22;;;;;;;8.48;2.00;;;13.00;99.90;;;;;;5091207;28;20036;-73
2022/10/19 10:16:54;;;;;;;5.93;2.00;;;13.00;99.90;;;;;;5073057;28;20107;-74
2022/10/19 10:19:25;;;;;;;10.02;2.20;;;13.00;99.90;;;;;;5091479;28;20028;-74
2022/10/19 10:21:56;;;;;;;6.53;2.35;;;13.10;99.90;;;;;;5073027;28;20458;-74
2022/10/19 10:24:25;;;;;;;6.55;2.08;;;13.10;99.90;;;;;;5073205;28;20036;-74
2022/10/19 10:26:54;;;;;;;7.90;2.25;;;13.10;99.90;;;;;;5090834;28;20032;-74
2022/10/19 10:29:24;;;;;;;7.25;1.90;;;13.10;99.90;;;;;;5091246;28;20085;-74
2022/10/19 10:31:54;;;;;;;;;;;13.20;99.90;;;;;;5091695;28;20028;-73
2022/10/19 10:34:33;;;;;;;8.45;1.40;;;13.20;99.90;;;;;;5073143;28;19918;-74
2022/10/19 10:36:59;;;;;;;6.22;1.50;;;13.20;99.90;;;;;;5073367;28;20028;-75
2022/10/19 10:39:27;;;;;;;4.82;1.13;;;13.30;99.90;;;;;;5091273;28;20026;-75
2022/10/19 10:41:54;;;;;;;7.35;1.63;;;13.30;99.90;;;;;;5091419;28;20035;-75
2022/10/19 10:44:25;;;;;;;3.42;1.17;;;13.30;99.90;;;;;;5091147;28;20028;-74
2022/10/19 10:47:04;;;;;;;6.47;1.40;;;13.30;99.90;;;;;;5072909;28;20055;-75
2022/10/19 10:49:36;;;;;;;;;;;13.40;99.90;;;;;;5091654;28;20488;-75
2022/10/19 10:52:11;;;;;;;4.80;1.63;;;13.40;99.90;;;;;;5072766;28;20330;-75
2022/10/19 10:54:37;;;;;;;6.55;1.67;;;13.40;99.90;;;;;;5093202;28;20028;-74
2022/10/19 10:57:15;;;;;;;10.52;1.90;;;13.40;99.90;;;;;;5076472;28;20494;-74
2022/10/19 10:59:55;;;;;;;6.45;1.80;;;13.50;99.90;;;;;;5094668;28;20083;-75
2022/10/19 11:02:35;;;;;;;4.78;1.38;;;13.50;99.90;;;;;;5094808;28;20106;-75
2022/10/19 11:05:30;;;;;;;9.13;1.40;;;13.50;99.90;;;;;;5094748;28;20400;-74
2022/10/19 11:08:15;;;;;;;3.65;1.10;;;13.60;99.90;;;;;;5094605;28;20036;-74
2022/10/19 11:11:06;;;;;;;7.57;1.70;;;13.60;99.90;;;;;;5094436;28;20039;-76
2022/10/19 11:13:37;;;;;;;5.75;1.60;;;13.60;99.90;;;;;;5062345;28;20075;-75
2022/10/19 11:16:36;;;;;;;5.70;1.23;;;13.70;99.90;;;;;;5076474;28;20031;-75
2022/10/19 11:19:23;;;;;;;3.47;1.17;;;13.70;99.90;;;;;;5090337;28;20063;-74
2022/10/19 11:22:01;;;;;;;5.18;1.33;;;13.70;99.90;;;;;;5094941;28;20491;-75
2022/10/19 11:24:57;;;;;;;5.43;1.30;;;13.70;99.90;;;;;;5094350;28;20039;-74
2022/10/19 11:27:52;;;;;;;8.40;1.50;;;13.80;99.90;;;;;;5075783;28;20032;-74
2022/10/19 11:30:20;;;;;;;4.95;1.33;;;13.80;99.90;;;;;;5075678;28;20032;-74
2022/10/19 11:33:04;;;;;;;5.78;1.30;;;13.80;99.90;;;;;;5094377;28;20028;-75
2022/10/19 11:35:55;;;;;;;7.97;2.08;;;13.80;99.90;;;;;;5094377;28;20024;-74
2022/10/19 11:38:33;;;;;;;4.80;1.50;;;13.90;99.90;;;;;;5059475;28;20020;-74
2022/10/19 11:41:04;;;;;;;4.65;1.40;;;13.90;99.90;;;;;;5094317;28;20276;-74
2022/10/19 11:43:44;;;;;;;4.65;1.50;;;13.90;99.90;;;;;;5094103;28;20073;-73
2022/10/19 11:46:30;;;;;;;5.85;1.42;;;13.90;99.90;;;;;;5093930;28;20040;-75
2022/10/19 11:49:26;;;;;;;9.35;1.60;;;13.90;99.90;;;;;;5094092;28;20092;-74
2022/10/19 11:52:04;;;;;;;4.60;1.33;;;14.00;99.90;;;;;;5075710;28;20035;-76
2022/10/19 11:54:54;;;;;;;4.72;1.38;;;14.00;99.90;;;;;;5094084;28;20026;-73
2022/10/19 11:57:20;;;;;;;3.90;1.23;;;14.10;99.90;;;;;;5093985;28;20020;-74
2022/10/19 12:00:21;;;;;;;4.53;1.27;;;14.10;99.90;;;;;;5093693;28;20032;-74
2022/10/19 12:02:56;;;;;;;3.05;1.10;;;14.20;99.90;;;;;;5063018;28;20063;-74
2022/10/19 12:05:30;;;;;;;3.47;1.02;;;14.20;99.90;;;;;;5093583;28;20028;-75
2022/10/19 12:08:10;;;;;;;6.60;1.20;;;14.20;99.90;;;;;;5093300;28;20111;-73
2022/10/19 12:10:54;;;;;;;4.05;1.17;;;14.20;99.90;;;;;;5058753;28;20028;-74
2022/10/19 12:13:49;;;;;;;4.57;1.30;;;14.20;99.90;;;;;;5075867;28;20435;-74
2022/10/19 12:16:17;;;;;;;4.90;1.40;;;14.20;99.90;;;;;;5091164;28;20042;-74
2022/10/19 12:18:52;;;;;;;3.63;1.10;;;14.20;99.90;;;;;;5093199;28;20020;-74
2022/10/19 12:21:37;;;;;;;4.53;1.30;;;14.20;99.90;;;;;;5093372;28;20036;-74
2022/10/19 12:24:09;;;;;;;5.90;1.27;;;14.20;99.90;;;;;;5093355;28;20070;-75
2022/10/19 12:26:36;;;;;;;3.42;1.30;;;14.20;99.90;;;;;;5093881;28;20055;-75
2022/10/19 12:29:15;;;;;;;5.13;1.30;;;14.20;99.90;;;;;;5074949;28;20036;-74
2022/10/19 12:31:41;;;;;;;3.60;1.35;;;14.20;99.90;;;;;;5093207;28;20028;-74
2022/10/19 12:34:32;;;;;;;2.10;1.10;;;14.20;99.90;;;;;;5092697;28;20082;-73
2022/10/19 12:37:29;;;;;;;4.70;1.20;;;14.20;99.90;;;;;;5092639;28;20071;-74
2022/10/19 12:40:04;;;;;;;6.15;1.45;;;14.20;99.90;;;;;;5074584;28;20060;-74
2022/10/19 12:42:55;;;;;;;5.32;1.30;;;14.20;99.90;;;;;;5092900;28;20028;-76
2022/10/19 12:45:34;;;;;;;5.03;1.40;;;14.20;99.90;;;;;;5092949;28;20028;-76
2022/10/19 12:48:10;;;;;;;7.28;1.85;;;14.20;99.90;;;;;;5092584;28;20063;-74
2022/10/19 12:50:47;;;;;;;4.45;1.10;;;14.30;99.90;;;;;;5092722;28;20035;-74
2022/10/19 12:53:37;;;;;;;4.07;1.38;;;14.30;99.90;;;;;;5092521;28;20032;-74
2022/10/19 12:56:08;;;;;;;;;;;14.30;99.90;;;;;;5093153;28;20024;-74
2022/10/19 12:58:48;;;;;;;6.45;1.95;;;14.30;99.90;;;;;;5092366;28;19915;-75
2022/10/19 13:01:32;;;;;;;3.72;1.30;;;14.40;99.90;;;;;;5092691;28;20146;-75
2022/10/19 13:04:15;;;;;;;3.47;1.02;;;14.40;99.90;;;;;;5092833;28;20032;-75